Overview Statistics Trail Chart Weather Telemetry Raw packets
 

This is the latest recevied weather packets stored in our database for station/object W4MLN-3. If no packets are shown the sender has not sent any weather packets the latest 10 day(s).

<< 42 43 44 45 46 47 48 >>
Time Temp. Humidity Pressure Rain* Wind** Luminosity Snow
1788218404 22.22° C 91% 1023.3 hPa 5.84 mm - - -
1788218103 22.22° C 91% 1023.4 hPa 7.37 mm - - -
1788217803 22.22° C 91% 1023.5 hPa 7.37 mm - - -
1788217503 22.22° C 90% 1023.5 hPa 7.37 mm - - -
1788217203 22.22° C 89% 1023.5 hPa 7.37 mm - - -
1788216903 22.22° C 88% 1023.6 hPa 7.37 mm - - -
1788216604 22.78° C 87% 1023.5 hPa 7.37 mm - - -
1788216324 22.78° C 87% 1023.5 hPa 7.37 mm - - -
1788216021 23.33° C 84% 1023.7 hPa 7.37 mm - - -
1788215703 23.89° C 83% 1023.8 hPa 7.37 mm - - -
1788215403 24.44° C 80% 1023.7 hPa 6.6 mm - - -
1788215124 25° C 78% 1023.7 hPa 5.33 mm - - -
1788214803 26.11° C 75% 1023.8 hPa 1.52 mm - - -
1788214503 26.67° C 69% 1023.7 hPa 0 mm - - -
1788214203 27.22° C 67% 1023.5 hPa 0 mm - - -
1788213904 27.22° C 66% 1023.3 hPa 0 mm - - -
1788213603 27.78° C 65% 1023.3 hPa 0 mm - - -
1788213303 27.78° C 64% 1023.2 hPa 0 mm - - -
1788213003 28.33° C 63% 1023.2 hPa 0 mm - - -
1788212703 28.33° C 62% 1023.1 hPa 0 mm - - -
1788212403 28.33° C 61% 1023.2 hPa 0 mm - - -
1788212124 28.33° C 62% 1023.3 hPa 0 mm - - -
1788211803 28.33° C 62% 1023.4 hPa 0 mm - - -
1788211503 28.89° C 62% 1023.4 hPa 0 mm - - -
1788211203 28.89° C 61% 1023.3 hPa 0 mm - - -

* Rain latest hour (hover to see other rain measurements)
** Current wind speed in m/s (hover to see current wind gust speed)